Time;durP1;ratioP1;P1;durP2;ratioP2;P2;SDS_P1;SDS_P2;PMS_P1;PMS_P2;Temp;Humidity;BMP_temperature;BMP_pressure;BME280_temperature;BME280_humidity;BME280_pressure;Samples;Min_cycle;Max_cycle;Signal;HPM_P1;HPM_P2
2023/04/29 00:01:05;;;;;;;4.43;1.00;;;;;;;10.63;62.29;101310.06;5041710;28;20509;-70
2023/04/29 00:03:33;;;;;;;6.43;1.45;;;;;;;10.60;62.50;101310.47;5043149;28;20036;-71
2023/04/29 00:05:59;;;;;;;3.92;1.20;;;;;;;10.55;62.89;101308.31;5042184;28;20060;-70
2023/04/29 00:08:25;;;;;;;4.07;1.58;;;;;;;10.45;63.40;101294.31;5042337;28;20029;-71
2023/04/29 00:10:51;;;;;;;4.38;1.27;;;;;;;10.49;63.34;101306.34;5041364;28;20029;-71
2023/04/29 00:13:16;;;;;;;3.70;1.38;;;;;;;10.45;63.52;101297.81;5038597;28;20022;-70
2023/04/29 00:15:42;;;;;;;5.53;1.10;;;;;;;10.49;63.44;101295.59;5042788;28;20021;-70
2023/04/29 00:18:08;;;;;;;2.17;1.17;;;;;;;10.49;63.31;101298.28;5041779;28;20448;-70
2023/04/29 00:20:34;;;;;;;2.75;1.30;;;;;;;10.50;63.13;101291.91;5041826;28;20097;-70
2023/04/29 00:23:00;;;;;;;3.67;1.40;;;;;;;10.47;63.50;101286.91;5021512;28;20029;-71
2023/04/29 00:25:25;;;;;;;4.80;1.65;;;;;;;10.37;64.31;101268.34;5038138;28;20053;-70
2023/04/29 00:27:51;;;;;;;5.85;1.70;;;;;;;10.44;63.74;101280.03;5035550;28;20526;-70
2023/04/29 00:30:16;;;;;;;4.97;1.52;;;;;;;10.44;64.29;101282.72;5020721;28;20164;-70
2023/04/29 00:32:43;;;;;;;6.38;1.80;;;;;;;10.44;64.37;101279.19;5037439;28;20037;-69
2023/04/29 00:35:10;;;;;;;4.50;1.45;;;;;;;10.43;64.20;101280.19;5036603;28;20025;-70
2023/04/29 00:37:35;;;;;;;5.75;1.30;;;;;;;10.31;64.04;101264.53;5037778;28;20413;-70
2023/04/29 00:40:01;;;;;;;5.50;1.45;;;;;;;10.45;64.10;101275.47;5037188;28;20040;-70
2023/04/29 00:42:28;;;;;;;4.90;1.58;;;;;;;10.41;64.00;101282.25;5037920;28;20032;-71
2023/04/29 00:44:53;;;;;;;5.05;1.60;;;;;;;10.41;64.29;101282.25;5036470;28;20415;-71
2023/04/29 00:47:19;;;;;;;4.50;1.38;;;;;;;10.35;64.27;101267.69;5036531;28;20057;-70
2023/04/29 00:49:44;;;;;;;8.77;1.40;;;;;;;10.32;64.06;101265.34;5036099;28;20040;-71
2023/04/29 00:52:11;;;;;;;4.75;1.52;;;;;;;10.42;64.25;101281.22;5036388;28;20044;-70
2023/04/29 00:54:37;;;;;;;4.53;1.42;;;;;;;10.40;64.43;101288.63;5037447;28;20026;-71
2023/04/29 00:57:05;;;;;;;5.57;1.48;;;;;;;10.39;64.67;101278.91;5035866;28;20091;-70
2023/04/29 00:59:32;;;;;;;5.43;1.40;;;;;;;10.36;64.74;101277.41;5035054;28;20029;-70
2023/04/29 01:02:03;;;;;;;4.70;1.60;;;;;;;10.17;64.75;101245.69;5033728;28;20349;-69
2023/04/29 01:04:30;;;;;;;4.68;1.60;;;;;;;10.33;65.00;101278.66;5035301;28;20032;-70
2023/04/29 01:07:15;;;;;;;4.25;1.60;;;;;;;10.31;65.65;101272.59;5035858;28;20025;-70
2023/04/29 01:10:00;;;;;;;3.22;1.30;;;;;;;10.31;65.05;101269.09;5036955;28;20052;-71
2023/04/29 01:12:35;;;;;;;3.95;1.50;;;;;;;10.31;65.22;101277.97;5036592;28;20029;-70
2023/04/29 01:15:09;;;;;;;4.15;1.55;;;;;;;10.23;65.70;101278.06;5036573;28;20446;-70
2023/04/29 01:17:49;;;;;;;;;;;;;;;10.23;65.80;101271.81;5040974;28;20455;-70
2023/04/29 01:20:15;;;;;;;4.95;1.63;;;;;;;10.13;65.38;101269.41;5044450;28;19963;-70
2023/04/29 01:22:41;;;;;;;3.42;1.55;;;;;;;10.00;65.72;101251.25;5040074;28;20033;-70
2023/04/29 01:25:07;;;;;;;5.22;1.60;;;;;;;10.01;66.58;101268.22;5038523;28;20040;-71
2023/04/29 01:27:45;;;;;;;7.90;1.70;;;;;;;10.02;66.11;101259.13;5038807;28;20026;-70
2023/04/29 01:30:31;;;;;;;7.20;1.77;;;;;;;9.95;66.64;101266.25;5039336;28;20032;-70
2023/04/29 01:33:22;;;;;;;8.23;1.48;;;;;;;9.97;66.80;101251.63;5039918;28;20503;-70
2023/04/29 01:36:08;;;;;;;4.97;1.40;;;;;;;9.86;66.42;101238.59;5038134;28;20061;-70
2023/04/29 01:38:44;;;;;;;5.07;1.38;;;;;;;9.91;66.87;101251.50;5039203;28;20049;-71
2023/04/29 01:41:12;;;;;;;3.92;1.30;;;;;;;9.92;66.69;101254.00;5039014;28;20112;-69
2023/04/29 01:43:38;;;;;;;3.05;1.23;;;;;;;9.77;66.77;101235.19;5038142;28;20091;-70
2023/04/29 01:46:08;;;;;;;4.68;1.40;;;;;;;9.86;66.83;101246.66;5038983;28;20030;-70
2023/04/29 01:48:33;;;;;;;3.78;1.40;;;;;;;9.94;66.71;101248.47;5038636;28;20017;-70
2023/04/29 01:50:58;;;;;;;7.20;1.50;;;;;;;9.97;67.07;101245.41;5037154;28;20041;-70
2023/04/29 01:53:24;;;;;;;6.38;1.40;;;;;;;9.97;66.58;101234.66;5036890;28;20049;-70
2023/04/29 01:55:49;;;;;;;7.15;1.55;;;;;;;9.99;66.99;101237.97;5036250;28;20037;-70
2023/04/29 01:58:15;;;;;;;3.85;1.25;;;;;;;9.93;67.50;101234.16;5038665;28;20030;-69
2023/04/29 02:00:41;;;;;;;4.20;1.30;;;;;;;10.00;67.04;101236.94;5038155;28;20030;-70
2023/04/29 02:03:06;;;;;;;6.25;1.35;;;;;;;10.00;66.70;101234.25;5038140;28;20492;-70
2023/04/29 02:05:33;;;;;;;4.20;1.15;;;;;;;10.03;66.75;101236.56;5005225;28;20039;-70
2023/04/29 02:07:59;;;;;;;4.72;1.27;;;;;;;9.93;66.90;101225.25;5043703;28;20067;-70
2023/04/29 02:10:26;;;;;;;7.28;1.40;;;;;;;10.02;66.24;101235.75;5045879;28;20056;-70
2023/04/29 02:12:52;;;;;;;8.23;1.30;;;;;;;10.00;67.40;101237.81;5039197;28;20055;-71
2023/04/29 02:15:18;;;;;;;4.75;1.60;;;;;;;9.98;66.69;101222.88;5037947;28;20116;-70
2023/04/29 02:17:43;;;;;;;5.18;1.20;;;;;;;9.89;66.65;101225.63;5037636;28;20044;-70
2023/04/29 02:20:09;;;;;;;4.03;1.48;;;;;;;9.97;66.77;101231.97;5038093;28;20130;-69
2023/04/29 02:22:35;;;;;;;5.57;1.50;;;;;;;9.96;67.10;101228.41;5039551;28;20049;-71
2023/04/29 02:25:01;;;;;;;3.65;1.55;;;;;;;9.98;66.66;101226.38;5037535;28;20037;-70
2023/04/29 02:27:26;;;;;;;3.05;1.30;;;;;;;10.00;67.20;101232.44;5038724;28;20025;-70
2023/04/29 02:29:52;;;;;;;5.00;1.30;;;;;;;10.01;67.23;101222.50;5037674;28;20061;-70
2023/04/29 02:32:19;;;;;;;3.67;1.27;;;;;;;9.98;67.41;101220.19;5038110;28;20117;-70
2023/04/29 02:34:45;;;;;;;3.47;1.40;;;;;;;9.95;67.42;101209.78;5038734;28;20097;-70
2023/04/29 02:37:10;;;;;;;5.82;1.42;;;;;;;9.93;66.88;101212.66;5037274;28;20085;-70
2023/04/29 02:39:36;;;;;;;4.28;1.55;;;;;;;9.90;66.73;101207.69;5004111;28;20029;-70
2023/04/29 02:42:01;;;;;;;4.20;1.60;;;;;;;9.87;67.30;101198.13;5019985;28;20084;-70
2023/04/29 02:44:27;;;;;;;4.18;1.50;;;;;;;9.87;67.59;101205.34;5036690;28;20044;-70
2023/04/29 02:46:53;;;;;;;3.40;1.30;;;;;;;9.87;67.67;101202.66;5020246;28;20072;-70
2023/04/29 02:49:18;;;;;;;4.97;1.23;;;;;;;9.91;67.75;101203.13;5038471;28;20029;-70
2023/04/29 02:51:44;;;;;;;5.78;1.13;;;;;;;9.95;67.09;101201.72;5036788;28;20030;-70
2023/04/29 02:54:10;;;;;;;3.90;1.38;;;;;;;9.91;67.24;101201.28;5020628;28;20084;-70
2023/04/29 02:56:36;;;;;;;3.58;1.17;;;;;;;9.94;67.30;101203.59;5020891;28;20029;-70
2023/04/29 02:59:02;;;;;;;3.85;1.10;;;;;;;9.75;67.29;101178.09;5017485;28;20026;-70
2023/04/29 03:01:27;;;;;;;3.67;1.23;;;;;;;9.85;67.45;101200.16;5020171;28;20029;-70
2023/04/29 03:03:53;;;;;;;2.55;1.13;;;;;;;9.81;67.78;101204.22;5038566;28;20048;-71
2023/04/29 03:06:19;;;;;;;4.03;1.33;;;;;;;9.79;67.33;101203.56;5037845;28;20044;-70
2023/04/29 03:08:45;;;;;;;2.90;1.10;;;;;;;9.84;67.16;101192.28;5038717;28;20713;-70
2023/04/29 03:11:10;;;;;;;2.80;0.98;;;;;;;9.79;67.60;101190.13;5039616;28;20120;-70
2023/04/29 03:13:36;;;;;;;4.45;1.00;;;;;;;9.86;67.30;101195.59;5038422;28;20038;-70
2023/04/29 03:16:02;;;;;;;2.78;1.20;;;;;;;9.84;67.37;101182.34;5037269;28;20039;-70
2023/04/29 03:18:27;;;;;;;2.75;1.08;;;;;;;9.85;66.75;101189.41;5036545;28;20136;-70
2023/04/29 03:20:53;;;;;;;3.40;1.05;;;;;;;9.68;67.39;101158.34;5038689;28;20047;-70
2023/04/29 03:23:18;;;;;;;4.18;1.08;;;;;;;9.71;67.41;101178.66;5037467;28;20055;-70
2023/04/29 03:25:44;;;;;;;5.57;1.35;;;;;;;9.65;67.86;101181.03;5036925;28;20040;-70
2023/04/29 03:28:09;;;;;;;4.68;1.40;;;;;;;9.67;67.26;101180.88;5036895;28;20096;-70
2023/04/29 03:30:35;;;;;;;3.85;1.65;;;;;;;9.72;68.20;101183.81;5037016;28;20029;-69
2023/04/29 03:33:01;;;;;;;5.28;1.30;;;;;;;9.73;67.77;101187.34;5038220;28;20048;-70
2023/04/29 03:35:26;;;;;;;3.25;1.08;;;;;;;9.70;67.97;101175.13;5036850;28;20037;-71
2023/04/29 03:37:52;;;;;;;2.92;1.17;;;;;;;9.78;67.49;101177.72;5037316;28;20049;-71
2023/04/29 03:40:18;;;;;;;4.03;1.30;;;;;;;9.74;68.64;101176.44;5036907;28;20068;-71
2023/04/29 03:42:43;;;;;;;4.25;1.30;;;;;;;9.78;68.60;101171.50;5033630;28;20037;-71
2023/04/29 03:45:11;;;;;;;2.95;1.30;;;;;;;9.65;68.86;101151.50;5035478;28;20080;-70
2023/04/29 03:47:37;;;;;;;5.10;1.40;;;;;;;9.83;69.17;101175.31;5036414;28;20018;-70
2023/04/29 03:50:03;;;;;;;5.68;1.40;;;;;;;9.86;69.44;101166.03;5037092;28;20098;-70
2023/04/29 03:52:29;;;;;;;4.18;1.40;;;;;;;9.97;68.75;101164.75;5038118;28;20028;-70
2023/04/29 03:54:54;;;;;;;4.63;1.55;;;;;;;10.02;68.72;101165.84;5037275;28;20528;-70
2023/04/29 03:57:20;;;;;;;4.60;1.70;;;;;;;9.97;69.53;101164.75;5038680;28;20051;-70
2023/04/29 03:59:49;;;;;;;3.38;1.40;;;;;;;9.89;69.55;101141.47;5037332;28;20021;-70
2023/04/29 04:02:15;;;;;;;3.92;1.52;;;;;;;9.95;69.54;101142.59;5034032;28;20035;-70
2023/04/29 04:04:40;;;;;;;3.53;1.45;;;;;;;10.08;69.71;101157.03;5036637;28;20037;-70
2023/04/29 04:07:06;;;;;;;3.92;1.60;;;;;;;10.00;70.04;101137.47;5037744;28;20040;-70
2023/04/29 04:09:32;;;;;;;6.95;1.92;;;;;;;10.05;69.89;101145.81;5036134;28;20093;-70
2023/04/29 04:11:58;;;;;;;2.95;1.60;;;;;;;9.64;70.06;101084.50;5038478;28;20034;-70
2023/04/29 04:14:23;;;;;;;4.78;1.58;;;;;;;10.06;70.55;101156.38;5039421;28;20018;-70
2023/04/29 04:16:49;;;;;;;6.63;1.80;;;;;;;10.09;70.29;101149.78;5042763;28;20036;-70
2023/04/29 04:19:15;;;;;;;4.35;1.50;;;;;;;10.11;70.75;101143.22;5037060;28;20052;-69
2023/04/29 04:21:41;;;;;;;3.67;1.60;;;;;;;10.15;71.34;101149.06;5038326;28;20025;-69
2023/04/29 04:24:06;;;;;;;3.78;1.63;;;;;;;10.20;71.26;101149.34;5038136;28;20504;-70
2023/04/29 04:26:32;;;;;;;4.57;1.88;;;;;;;10.21;70.69;101140.25;5036955;28;20029;-70
2023/04/29 04:28:58;;;;;;;5.00;1.55;;;;;;;10.16;71.79;101145.34;5037205;28;20025;-70
2023/04/29 04:31:24;;;;;;;5.50;1.90;;;;;;;10.16;71.85;101139.94;5038294;28;20444;-71
2023/04/29 04:33:49;;;;;;;5.80;1.73;;;;;;;10.21;71.78;101134.84;5037742;28;20025;-70
2023/04/29 04:36:15;;;;;;;3.38;1.50;;;;;;;10.35;71.35;101134.00;5038315;28;20034;-70
2023/04/29 04:38:40;;;;;;;2.70;1.50;;;;;;;10.51;71.23;101140.19;5036157;28;20116;-70
2023/04/29 04:41:09;;;;;;;6.38;1.80;;;;;;;10.62;71.00;101141.53;5032891;28;20453;-70
2023/04/29 04:43:35;;;;;;;2.95;1.40;;;;;;;10.74;70.39;101137.34;5015619;28;20641;-69
2023/04/29 04:46:09;;;;;;;3.80;1.60;;;;;;;10.87;70.75;101142.84;5036129;28;20034;-69
2023/04/29 04:48:34;;;;;;;3.50;1.70;;;;;;;11.05;69.58;101142.38;5017466;28;20030;-70
2023/04/29 04:51:10;;;;;;;5.00;1.73;;;;;;;11.14;69.93;101135.00;5036675;28;20040;-70
2023/04/29 04:53:35;;;;;;;4.25;1.63;;;;;;;11.13;69.42;101123.41;5037583;28;20032;-70
2023/04/29 04:56:02;;;;;;;4.63;1.70;;;;;;;11.35;69.08;101134.94;5041436;28;20404;-71
2023/04/29 04:58:27;;;;;;;4.88;1.67;;;;;;;11.63;68.51;101123.34;5041715;28;20034;-70
2023/04/29 05:00:52;;;;;;;3.75;1.38;;;;;;;11.61;68.63;101126.22;5040899;28;20033;-70
2023/04/29 05:03:18;;;;;;;4.15;1.50;;;;;;;11.53;68.66;101100.25;5044382;28;20067;-70
2023/04/29 05:05:43;;;;;;;4.57;1.30;;;;;;;11.88;68.08;101121.81;5040792;28;20031;-70
2023/04/29 05:08:09;;;;;;;4.57;1.73;;;;;;;11.87;68.23;101120.16;5041973;28;20025;-70
2023/04/29 05:10:36;;;;;;;4.10;1.30;;;;;;;11.94;68.32;101122.91;5040795;28;20029;-70
2023/04/29 05:13:01;;;;;;;3.15;1.20;;;;;;;11.97;68.47;101119.78;5041921;28;20049;-70
2023/04/29 05:15:26;;;;;;;6.28;1.27;;;;;;;12.04;68.18;101123.34;5041996;28;20033;-70
2023/04/29 05:17:52;;;;;;;4.07;1.02;;;;;;;11.97;68.28;101103.63;5040245;28;20033;-69
2023/04/29 05:20:19;;;;;;;2.90;1.17;;;;;;;12.15;68.01;101112.00;5042207;28;20021;-70
2023/04/29 05:22:44;;;;;;;3.28;0.93;;;;;;;12.17;67.23;101087.50;5040171;28;20021;-69
2023/04/29 05:25:10;;;;;;;1.23;0.70;;;;;;;12.26;67.71;101104.34;5041767;28;20112;-70
2023/04/29 05:27:35;;;;;;;2.90;0.90;;;;;;;12.38;67.69;101102.72;5041308;28;20040;-70
2023/04/29 05:30:01;;;;;;;3.90;1.02;;;;;;;12.56;67.25;101099.44;5041723;28;20057;-71
2023/04/29 05:32:26;;;;;;;4.07;0.95;;;;;;;12.67;67.20;101105.06;5040209;28;20524;-71
2023/04/29 05:34:51;;;;;;;4.03;0.90;;;;;;;12.72;66.87;101090.97;5041609;28;20065;-70
2023/04/29 05:37:17;;;;;;;4.38;0.90;;;;;;;12.89;66.53;101094.91;5006764;28;20090;-70
2023/04/29 05:39:42;;;;;;;4.70;0.80;;;;;;;12.92;66.16;101093.66;5042164;28;20033;-70
2023/04/29 05:42:08;;;;;;;3.45;0.73;;;;;;;12.94;65.68;101094.28;5040406;28;20038;-70
2023/04/29 05:44:33;;;;;;;3.40;0.93;;;;;;;12.84;65.73;101091.97;5041700;28;20518;-70
2023/04/29 05:46:59;;;;;;;4.80;0.80;;;;;;;12.95;64.74;101093.25;5022380;28;20038;-70
2023/04/29 05:49:25;;;;;;;5.60;1.00;;;;;;;13.15;64.06;101090.56;5003891;28;20030;-70
2023/04/29 05:51:50;;;;;;;3.53;1.10;;;;;;;13.27;63.63;101082.66;5039398;28;20034;-70
2023/04/29 05:54:16;;;;;;;5.07;0.90;;;;;;;13.49;63.19;101085.94;5039863;28;20033;-70
2023/04/29 05:56:41;;;;;;;4.20;1.02;;;;;;;13.98;61.97;101087.25;5039467;28;20033;-70
2023/04/29 05:59:07;;;;;;;7.07;1.15;;;;;;;14.13;61.70;101081.56;5038906;28;20045;-70
2023/04/29 06:01:32;;;;;;;3.20;1.10;;;;;;;14.13;61.78;101078.84;5040130;28;20021;-70
2023/04/29 06:03:58;;;;;;;4.63;1.20;;;;;;;14.01;61.67;101076.84;5022469;28;20037;-70
2023/04/29 06:06:23;;;;;;;4.97;1.55;;;;;;;13.89;61.84;101075.84;5039311;28;20467;-70
2023/04/29 06:08:50;;;;;;;4.93;1.60;;;;;;;13.81;61.18;101067.97;5038942;28;20021;-70
2023/04/29 06:11:15;;;;;;;7.10;1.65;;;;;;;13.84;61.07;101079.19;5038632;28;20449;-70
2023/04/29 06:13:41;;;;;;;4.40;1.60;;;;;;;13.86;60.82;101070.84;5035079;28;20044;-70
2023/04/29 06:16:06;;;;;;;4.80;1.80;;;;;;;13.86;60.88;101063.56;5040498;28;20033;-69
2023/04/29 06:18:32;;;;;;;3.60;1.88;;;;;;;13.84;61.19;101076.50;5039380;28;20043;-70
2023/04/29 06:20:57;;;;;;;5.72;2.30;;;;;;;13.82;61.21;101064.22;5022813;28;20037;-70
2023/04/29 06:23:23;;;;;;;5.78;2.50;;;;;;;13.77;61.74;101064.00;5039383;28;20450;-70
2023/04/29 06:25:48;;;;;;;6.28;2.15;;;;;;;13.83;61.60;101066.69;5035668;28;20083;-69
2023/04/29 06:28:14;;;;;;;5.25;2.00;;;;;;;13.70;61.85;101071.31;5035572;28;20448;-70
2023/04/29 06:30:40;;;;;;;6.65;2.33;;;;;;;13.56;62.86;101078.66;5039664;28;20033;-71
2023/04/29 06:33:06;;;;;;;5.00;2.28;;;;;;;13.38;63.69;101079.31;5039404;28;20040;-70
2023/04/29 06:35:32;;;;;;;4.72;2.30;;;;;;;13.13;64.07;101050.22;5036076;28;20059;-70
2023/04/29 06:37:57;;;;;;;5.55;2.00;;;;;;;13.31;64.49;101078.47;5038363;28;20055;-70
2023/04/29 06:40:23;;;;;;;7.43;2.13;;;;;;;13.27;64.79;101061.03;5040537;28;20047;-70
2023/04/29 06:42:49;;;;;;;5.78;2.10;;;;;;;13.34;65.06;101070.81;5039065;28;20105;-70
2023/04/29 06:45:14;;;;;;;6.55;2.10;;;;;;;13.21;65.56;101053.72;5038698;28;20464;-70
2023/04/29 06:47:40;;;;;;;4.45;1.88;;;;;;;13.43;65.56;101065.16;5037705;28;20030;-70
2023/04/29 06:50:05;;;;;;;5.07;2.10;;;;;;;13.45;65.48;101068.50;5020642;28;20132;-71
2023/04/29 06:52:32;;;;;;;6.32;2.40;;;;;;;13.46;65.98;101064.75;5039553;28;20033;-70
2023/04/29 06:54:57;;;;;;;6.47;2.05;;;;;;;13.50;66.32;101061.41;5040319;28;20402;-69
2023/04/29 06:57:23;;;;;;;8.32;2.65;;;;;;;13.49;66.50;101056.22;5040475;28;20034;-69
2023/04/29 06:59:48;;;;;;;5.93;2.42;;;;;;;13.56;66.50;101063.25;5004816;28;20057;-74
2023/04/29 07:02:14;;;;;;;6.28;2.85;;;;;;;13.45;67.13;101060.38;5036660;28;20499;-69
2023/04/29 07:04:40;;;;;;;7.68;2.92;;;;;;;13.44;67.49;101054.13;5038636;28;20037;-70
2023/04/29 07:07:05;;;;;;;6.40;2.90;;;;;;;13.33;67.84;101043.97;5036833;28;20603;-69
2023/04/29 07:09:31;;;;;;;6.90;2.88;;;;;;;13.40;67.61;101048.31;5019089;28;20030;-70
2023/04/29 07:11:56;;;;;;;8.25;4.03;;;;;;;13.17;67.71;101040.63;5037436;28;20029;-69
2023/04/29 07:14:22;;;;;;;9.68;3.90;;;;;;;13.19;67.67;101055.84;5037131;28;20059;-70
2023/04/29 07:16:52;;;;;;;8.00;3.78;;;;;;;13.27;67.34;101047.53;5020764;28;20040;-69
2023/04/29 07:19:18;;;;;;;8.82;4.65;;;;;;;13.19;66.79;101055.84;5038866;28;20029;-66
2023/04/29 07:21:44;;;;;;;8.77;4.40;;;;;;;13.19;66.11;101050.44;5038403;28;20056;-69
2023/04/29 07:24:09;;;;;;;8.00;4.70;;;;;;;13.11;65.41;101024.44;5037912;28;20053;-70
2023/04/29 07:26:35;;;;;;;10.48;5.05;;;;;;;13.13;65.41;101047.50;5036019;28;20057;-68
2023/04/29 07:29:00;;;;;;;10.90;5.00;;;;;;;13.11;65.36;101046.06;5038106;28;20026;-69
2023/04/29 07:31:26;;;;;;;10.75;5.30;;;;;;;13.20;65.26;101043.97;5045472;28;20034;-67
2023/04/29 07:33:51;;;;;;;13.23;5.47;;;;;;;13.35;64.82;101048.13;5044212;28;20049;-70
2023/04/29 07:36:17;;;;;;;11.10;5.32;;;;;;;13.21;65.27;101048.31;5046452;28;20030;-70
2023/04/29 07:38:42;;;;;;;8.70;4.95;;;;;;;13.10;65.05;101050.63;5044974;28;20049;-72
2023/04/29 07:41:08;;;;;;;9.50;5.10;;;;;;;12.96;65.56;101043.59;5026481;28;20037;-70
2023/04/29 07:43:33;;;;;;;9.23;5.18;;;;;;;12.98;65.71;101030.72;5025099;28;20029;-72
2023/04/29 07:45:59;;;;;;;8.38;5.18;;;;;;;12.99;65.72;101037.78;5041123;28;20059;-70
2023/04/29 07:48:24;;;;;;;9.23;5.05;;;;;;;12.91;65.88;101025.31;5041534;28;20037;-71
2023/04/29 07:50:50;;;;;;;8.60;5.28;;;;;;;12.95;65.67;101036.53;5028842;28;20037;-73
2023/04/29 07:53:16;;;;;;;13.85;6.30;;;;;;;12.79;66.35;101040.47;5010025;28;20032;-70
2023/04/29 07:55:41;;;;;;;11.75;5.10;;;;;;;12.85;66.45;101041.53;5044041;28;20033;-71
2023/04/29 07:58:07;;;;;;;8.82;5.07;;;;;;;12.80;66.33;101046.72;5046262;28;20038;-72
2023/04/29 08:00:32;;;;;;;10.57;5.40;;;;;;;12.79;66.10;101045.06;5047105;28;20045;-72
2023/04/29 08:02:58;;;;;;;9.23;5.22;;;;;;;12.77;65.82;101039.84;5041857;28;20053;-72
2023/04/29 08:05:24;;;;;;;7.88;4.95;;;;;;;12.84;65.08;101035.28;5038144;28;20103;-72
2023/04/29 08:07:50;;;;;;;9.32;3.80;;;;;;;12.50;64.72;101039.00;5039701;28;20033;-72
2023/04/29 08:10:17;;;;;;;8.80;4.15;;;;;;;12.58;64.61;101043.38;5045165;28;20057;-72
2023/04/29 08:12:46;;;;;;;6.15;3.50;;;;;;;12.63;63.00;101039.03;5047242;28;20052;-70
2023/04/29 08:15:11;;;;;;;9.15;3.80;;;;;;;12.66;61.81;101035.91;5044887;28;20056;-70
2023/04/29 08:17:37;;;;;;;10.32;3.22;;;;;;;12.47;61.33;101017.81;5038108;28;20048;-73
2023/04/29 08:20:02;;;;;;;6.72;3.17;;;;;;;12.28;61.50;101032.13;5039609;28;20036;-73
2023/04/29 08:22:28;;;;;;;5.57;3.00;;;;;;;12.34;61.44;101025.91;5037324;28;20029;-73
2023/04/29 08:24:53;;;;;;;8.85;3.13;;;;;;;12.46;61.41;101022.41;5002909;28;20040;-72
2023/04/29 08:27:20;;;;;;;9.80;3.00;;;;;;;12.40;61.42;101034.00;5035896;28;20029;-72
2023/04/29 08:29:46;;;;;;;6.50;2.55;;;;;;;12.12;61.26;101019.84;5035098;28;20546;-72
2023/04/29 08:32:11;;;;;;;9.57;2.88;;;;;;;12.15;61.12;101016.72;5033827;28;20029;-72
2023/04/29 08:34:37;;;;;;;4.57;2.42;;;;;;;12.54;60.71;101039.44;5035919;28;20021;-72
2023/04/29 08:37:02;;;;;;;4.63;2.50;;;;;;;12.33;61.19;101021.56;5035394;28;20049;-71
2023/04/29 08:39:29;;;;;;;5.05;2.90;;;;;;;12.46;61.54;101035.91;5035775;28;20057;-72
2023/04/29 08:41:59;;;;;;;7.57;3.50;;;;;;;12.38;61.70;101036.09;5036267;28;20025;-71
2023/04/29 08:44:26;;;;;;;6.28;2.92;;;;;;;12.34;61.99;101029.44;5034450;28;20032;-72
2023/04/29 08:46:52;;;;;;;6.68;3.05;;;;;;;12.46;61.70;101033.19;5033372;28;20439;-71
2023/04/29 08:49:17;;;;;;;8.75;2.85;;;;;;;12.61;61.25;101027.59;5017168;28;20029;-72
2023/04/29 08:51:43;;;;;;;7.25;2.58;;;;;;;12.75;60.82;101033.00;5033223;28;20057;-72
2023/04/29 08:54:10;;;;;;;7.40;2.80;;;;;;;12.84;60.72;101031.75;5033503;28;20060;-72
2023/04/29 08:56:36;;;;;;;8.20;3.40;;;;;;;12.78;60.60;101005.56;5033239;28;20033;-72
2023/04/29 08:59:03;;;;;;;9.52;3.22;;;;;;;12.86;60.51;101003.50;5034180;28;20025;-72
2023/04/29 09:01:29;;;;;;;6.50;2.08;;;;;;;13.25;59.90;101025.31;5036204;28;20038;-71
2023/04/29 09:04:11;;;;;;;3.03;1.50;;;;;;;12.91;60.00;101030.72;5035390;28;20029;-72
2023/04/29 09:06:37;;;;;;;5.55;1.80;;;;;;;12.76;61.05;101016.59;5035383;28;20109;-72
2023/04/29 09:09:03;;;;;;;5.35;1.65;;;;;;;12.48;61.76;100997.88;5036470;28;20104;-72
2023/04/29 09:11:29;;;;;;;6.72;1.80;;;;;;;12.67;62.30;101023.22;5035627;28;20033;-72
2023/04/29 09:14:00;;;;;;;6.18;2.13;;;;;;;12.72;63.27;101019.94;5035485;28;20037;-72
2023/04/29 09:16:26;;;;;;;5.90;1.63;;;;;;;12.64;63.33;101000.19;5038103;28;20400;-72
2023/04/29 09:18:53;;;;;;;6.38;1.55;;;;;;;12.46;63.31;101000.81;5036188;28;20021;-72
2023/04/29 09:21:24;;;;;;;6.65;1.80;;;;;;;12.72;62.70;101023.47;5035105;28;20110;-72
2023/04/29 09:23:55;;;;;;;4.13;1.63;;;;;;;12.95;62.13;101023.03;5035353;28;20030;-71
2023/04/29 09:26:21;;;;;;;4.57;1.63;;;;;;;13.08;62.01;101022.19;5035428;28;20112;-72
2023/04/29 09:29:04;;;;;;;5.25;1.67;;;;;;;13.04;61.93;101019.03;5035521;28;20384;-72
2023/04/29 09:31:29;;;;;;;5.40;2.13;;;;;;;12.96;62.28;100992.28;5035191;28;20106;-72
2023/04/29 09:33:57;;;;;;;11.40;7.20;;;;;;;13.30;61.63;101006.56;5034708;28;20489;-71
2023/04/29 09:36:43;;;;;;;9.82;4.00;;;;;;;13.64;60.92;101008.09;5034562;28;20114;-72
2023/04/29 09:39:10;;;;;;;12.55;6.88;;;;;;;13.81;60.55;101013.88;5033668;28;20045;-72
2023/04/29 09:41:42;;;;;;;35.42;20.50;;;;;;;14.09;60.35;101010.81;5033503;28;20038;-71
2023/04/29 09:44:09;;;;;;;13.98;4.82;;;;;;;14.10;60.49;101001.63;5033508;28;20033;-72
2023/04/29 09:46:35;;;;;;;7.03;3.55;;;;;;;14.50;59.33;100996.81;5034944;28;20021;-72
2023/04/29 09:49:03;;;;;;;10.63;2.97;;;;;;;14.40;59.46;101003.72;5040925;28;20038;-72
2023/04/29 09:51:31;;;;;;;10.57;7.47;;;;;;;14.63;58.74;101000.44;5036353;28;20436;-72
2023/04/29 09:53:58;;;;;;;11.35;5.97;;;;;;;14.93;57.91;100995.19;5037949;28;20029;-72
2023/04/29 09:56:27;;;;;;;23.88;16.38;;;;;;;14.99;58.60;100997.81;5035057;28;20029;-71
2023/04/29 09:58:54;;;;;;;9.40;5.78;;;;;;;14.71;58.36;100992.88;5036539;28;20029;-71
2023/04/29 10:01:21;;;;;;;7.15;2.33;;;;;;;14.30;59.34;101001.50;5031225;28;20047;-71
2023/04/29 10:03:47;;;;;;;7.00;1.98;;;;;;;14.30;59.97;101005.06;5042294;28;20550;-71
2023/04/29 10:06:15;;;;;;;5.15;2.50;;;;;;;14.63;59.20;101005.88;5032501;28;20035;-71
2023/04/29 10:08:43;;;;;;;7.63;2.33;;;;;;;14.74;59.44;101000.56;5017409;28;20095;-71
2023/04/29 10:11:10;;;;;;;7.85;2.40;;;;;;;14.75;59.03;100996.81;5034312;28;20074;-72
2023/04/29 10:13:37;;;;;;;8.95;2.55;;;;;;;14.67;58.77;100998.94;5033197;28;20412;-71
2023/04/29 10:16:27;;;;;;;6.55;2.55;;;;;;;14.50;59.70;100998.66;5035398;28;20166;-71
2023/04/29 10:18:54;;;;;;;6.28;2.30;;;;;;;14.19;60.56;100988.69;5033778;28;20036;-71
2023/04/29 10:21:27;;;;;;;7.47;2.35;;;;;;;13.96;61.59;100997.34;5032499;28;20087;-71
2023/04/29 10:23:53;;;;;;;8.05;2.20;;;;;;;13.92;61.20;100974.50;5034245;28;20083;-72
2023/04/29 10:26:19;;;;;;;9.02;2.00;;;;;;;14.34;59.94;100968.38;5032137;28;20034;-71
2023/04/29 10:28:47;;;;;;;6.88;1.80;;;;;;;13.94;60.10;100986.75;5034466;28;20508;-71
2023/04/29 10:31:15;;;;;;;13.77;2.45;;;;;;;14.55;59.45;100998.84;5032793;28;20544;-71
2023/04/29 10:33:44;;;;;;;10.75;2.55;;;;;;;14.69;59.32;100992.28;5034093;28;20071;-72
2023/04/29 10:36:11;;;;;;;5.53;1.83;;;;;;;14.69;60.04;100988.75;5033882;28;20026;-72
2023/04/29 10:38:45;;;;;;;8.52;2.30;;;;;;;14.30;61.15;100953.63;5034118;28;20050;-72
2023/04/29 10:41:22;;;;;;;10.98;2.20;;;;;;;14.65;59.88;100985.66;5038095;28;20017;-72
2023/04/29 10:43:48;;;;;;;7.45;1.50;;;;;;;14.61;60.34;100981.72;5040070;28;20461;-72
2023/04/29 10:46:17;;;;;;;6.75;1.73;;;;;;;14.33;59.55;100982.13;5032910;28;20056;-71
2023/04/29 10:48:46;;;;;;;5.88;1.30;;;;;;;13.90;57.48;100990.91;5035824;28;20017;-71
2023/04/29 10:51:13;;;;;;;7.35;1.20;;;;;;;13.89;55.64;100997.38;5033059;28;20045;-71
2023/04/29 10:54:24;;;;;;;7.13;1.27;;;;;;;13.82;53.76;100983.06;5032107;28;20473;-72
2023/04/29 10:56:53;;;;;;;3.08;0.63;;;;;;;13.75;54.24;100983.09;4972563;28;20474;-70
2023/04/29 10:59:38;;;;;;;9.65;1.58;;;;;;;13.61;54.73;100984.22;4972302;28;20510;-71
2023/04/29 11:02:03;;;;;;;5.45;1.48;;;;;;;13.73;54.68;100976.25;5004936;28;20091;-71
2023/04/29 11:04:30;;;;;;;5.53;1.13;;;;;;;13.99;53.52;100994.22;5031845;28;20025;-72
2023/04/29 11:06:58;;;;;;;12.48;1.40;;;;;;;13.62;54.80;100988.56;5031160;28;20044;-72
2023/04/29 11:09:24;;;;;;;10.98;1.42;;;;;;;13.74;55.12;100981.47;5032526;28;20116;-71
2023/04/29 11:11:57;;;;;;;4.32;1.10;;;;;;;14.06;55.58;100974.19;5032496;28;20032;-71
2023/04/29 11:14:29;;;;;;;11.85;1.70;;;;;;;13.90;56.58;100974.69;5035424;28;20025;-71
2023/04/29 11:17:02;;;;;;;9.02;1.45;;;;;;;13.75;56.79;100985.00;5035249;28;20029;-71
2023/04/29 11:19:39;;;;;;;9.00;1.25;;;;;;;13.39;57.96;100986.38;5031714;28;20033;-71
2023/04/29 11:22:13;;;;;;;7.53;1.17;;;;;;;13.09;58.46;100996.81;5034546;28;20384;-72
2023/04/29 11:24:59;;;;;;;8.13;1.23;;;;;;;12.72;60.28;100952.44;5032679;28;20029;-72
2023/04/29 11:27:35;;;;;;;7.90;1.50;;;;;;;12.83;61.12;100984.19;5033547;28;20033;-71